<?xml version="1.0" encoding="UTF-8" standalone="no" ?>
<gpx xmlns="http://www.topografix.com/GPX/1/1" xmlns:xsi="http://www.w3.org/2001/XMLSchema-instance" xsi:schemaLocation="http://www.topografix.com/GPX/1/1 http://www.topografix.com/GPX/1/1/gpx.xsd" version="1.1" creator="VisuGPX - https://www.visugpx.com">
  <metadata>
    <name>Vous suivez 1-Antraïgues</name>
    <desc><![CDATA[très belle rando "sauvage" faite en mars 2021..
 a faire avec les genêts en fleurs (avril?)]]></desc>
  </metadata>
  <trk>
    <name><![CDATA[Vous suivez 1-Antraïgues]]></name>
    <trkseg>
      <trkpt lat="44.71836" lon="4.39401">
        <ele>648.4</ele>
      </trkpt>
      <trkpt lat="44.71834" lon="4.39383">
        <ele>654.1</ele>
      </trkpt>
      <trkpt lat="44.71838" lon="4.39344">
        <ele>652.6</ele>
      </trkpt>
      <trkpt lat="44.71848" lon="4.39326">
        <ele>654.573021</ele>
        <time>2021-03-25T08:27:24Z</time>
      </trkpt>
      <trkpt lat="44.7186" lon="4.39298">
        <ele>654.9</ele>
      </trkpt>
      <trkpt lat="44.71854" lon="4.39329">
        <ele>657.1</ele>
      </trkpt>
      <trkpt lat="44.71858" lon="4.39354">
        <ele>659.2</ele>
      </trkpt>
      <trkpt lat="44.71868" lon="4.39373">
        <ele>658.57490084</ele>
        <time>2021-03-25T08:28:59Z</time>
      </trkpt>
      <trkpt lat="44.71898" lon="4.39397">
        <ele>655.57586552</ele>
        <time>2021-03-25T08:29:34Z</time>
      </trkpt>
      <trkpt lat="44.71913" lon="4.3941">
        <ele>657.57639304</ele>
        <time>2021-03-25T08:29:50Z</time>
      </trkpt>
      <trkpt lat="44.71946" lon="4.39425">
        <ele>660.57701432</ele>
        <time>2021-03-25T08:30:22Z</time>
      </trkpt>
      <trkpt lat="44.71982" lon="4.39422">
        <ele>665.5768952</ele>
        <time>2021-03-25T08:30:57Z</time>
      </trkpt>
      <trkpt lat="44.72016" lon="4.3941">
        <ele>669.57639344</ele>
        <time>2021-03-25T08:31:30Z</time>
      </trkpt>
      <trkpt lat="44.72033" lon="4.39401">
        <ele>671.57602208</ele>
        <time>2021-03-25T08:31:46Z</time>
      </trkpt>
      <trkpt lat="44.72063" lon="4.39377">
        <ele>664.57507124</ele>
        <time>2021-03-25T08:32:20Z</time>
      </trkpt>
      <trkpt lat="44.72098" lon="4.39379">
        <ele>667.57515876</ele>
        <time>2021-03-25T08:32:56Z</time>
      </trkpt>
      <trkpt lat="44.72131" lon="4.39393">
        <ele>671.57570716</ele>
        <time>2021-03-25T08:33:29Z</time>
      </trkpt>
      <trkpt lat="44.72148" lon="4.39393">
        <ele>672.57573248</ele>
        <time>2021-03-25T08:33:45Z</time>
      </trkpt>
      <trkpt lat="44.72182" lon="4.39399">
        <ele>671.57597732</ele>
        <time>2021-03-25T08:34:20Z</time>
      </trkpt>
      <trkpt lat="44.72211" lon="4.39427">
        <ele>676.57708216</ele>
        <time>2021-03-25T08:34:53Z</time>
      </trkpt>
      <trkpt lat="44.72238" lon="4.39461">
        <ele>677.57842452</ele>
        <time>2021-03-25T08:35:24Z</time>
      </trkpt>
      <trkpt lat="44.72253" lon="4.39473">
        <ele>681.57892784</ele>
        <time>2021-03-25T08:35:42Z</time>
      </trkpt>
      <trkpt lat="44.72269" lon="4.39476">
        <ele>691.8</ele>
      </trkpt>
      <trkpt lat="44.72283" lon="4.39463">
        <ele>687.57852724</ele>
        <time>2021-03-25T08:36:16Z</time>
      </trkpt>
      <trkpt lat="44.7227" lon="4.39419">
        <ele>696.57677476</ele>
        <time>2021-03-25T08:37:14Z</time>
      </trkpt>
      <trkpt lat="44.72259" lon="4.39398">
        <ele>695.1</ele>
      </trkpt>
      <trkpt lat="44.72259" lon="4.39376">
        <ele>697.57504628</ele>
        <time>2021-03-25T08:37:54Z</time>
      </trkpt>
      <trkpt lat="44.7226" lon="4.39362">
        <ele>698.57446968</ele>
        <time>2021-03-25T08:40:41Z</time>
      </trkpt>
      <trkpt lat="44.72271" lon="4.39315">
        <ele>701.57259116</ele>
        <time>2021-03-25T08:41:11Z</time>
      </trkpt>
      <trkpt lat="44.72281" lon="4.39267">
        <ele>704.57067972</ele>
        <time>2021-03-25T08:41:44Z</time>
      </trkpt>
      <trkpt lat="44.72287" lon="4.39243">
        <ele>704.56972364</ele>
        <time>2021-03-25T08:42:00Z</time>
      </trkpt>
      <trkpt lat="44.72298" lon="4.39197">
        <ele>707.56789676</ele>
        <time>2021-03-25T08:42:32Z</time>
      </trkpt>
      <trkpt lat="44.72312" lon="4.39154">
        <ele>700.5661444</ele>
        <time>2021-03-25T08:43:04Z</time>
      </trkpt>
      <trkpt lat="44.72324" lon="4.39135">
        <ele>699.56540428</ele>
        <time>2021-03-25T08:43:21Z</time>
      </trkpt>
      <trkpt lat="44.72346" lon="4.39096">
        <ele>704.56385468</ele>
        <time>2021-03-25T08:43:53Z</time>
      </trkpt>
      <trkpt lat="44.72372" lon="4.39066">
        <ele>705.56263244</ele>
        <time>2021-03-25T08:44:25Z</time>
      </trkpt>
      <trkpt lat="44.72399" lon="4.39036">
        <ele>701.56145748</ele>
        <time>2021-03-25T08:44:55Z</time>
      </trkpt>
      <trkpt lat="44.72415" lon="4.39027">
        <ele>703.5610758</ele>
        <time>2021-03-25T08:45:14Z</time>
      </trkpt>
      <trkpt lat="44.72447" lon="4.39007">
        <ele>699.56026088</ele>
        <time>2021-03-25T08:45:51Z</time>
      </trkpt>
      <trkpt lat="44.72489" lon="4.39004">
        <ele>704.560172</ele>
        <time>2021-03-25T08:46:20Z</time>
      </trkpt>
      <trkpt lat="44.72526" lon="4.39005">
        <ele>706.56019088</ele>
        <time>2021-03-25T08:46:50Z</time>
      </trkpt>
      <trkpt lat="44.72543" lon="4.39006">
        <ele>706.56023168</ele>
        <time>2021-03-25T08:47:05Z</time>
      </trkpt>
      <trkpt lat="44.72578" lon="4.39007">
        <ele>707.56027436</ele>
        <time>2021-03-25T08:47:36Z</time>
      </trkpt>
      <trkpt lat="44.72613" lon="4.39017">
        <ele>715.560659</ele>
        <time>2021-03-25T08:48:07Z</time>
      </trkpt>
      <trkpt lat="44.72647" lon="4.39022">
        <ele>718.5608652</ele>
        <time>2021-03-25T08:48:39Z</time>
      </trkpt>
      <trkpt lat="44.72664" lon="4.39015">
        <ele>715.56058924</ele>
        <time>2021-03-25T08:48:57Z</time>
      </trkpt>
      <trkpt lat="44.72699" lon="4.39013">
        <ele>717.56051884</ele>
        <time>2021-03-25T08:49:29Z</time>
      </trkpt>
      <trkpt lat="44.72733" lon="4.39021">
        <ele>718.56082212</ele>
        <time>2021-03-25T08:50:01Z</time>
      </trkpt>
      <trkpt lat="44.72768" lon="4.39021">
        <ele>734.56082556</ele>
        <time>2021-03-25T08:53:58Z</time>
      </trkpt>
      <trkpt lat="44.72786" lon="4.39019">
        <ele>726.56075016</ele>
        <time>2021-03-25T08:54:15Z</time>
      </trkpt>
      <trkpt lat="44.72803" lon="4.39029">
        <ele>733</ele>
      </trkpt>
      <trkpt lat="44.72814" lon="4.39044">
        <ele>725.56173844</ele>
        <time>2021-03-25T08:54:48Z</time>
      </trkpt>
      <trkpt lat="44.72836" lon="4.39052">
        <ele>740.56209312</ele>
        <time>2021-03-25T08:55:45Z</time>
      </trkpt>
      <trkpt lat="44.72857" lon="4.3909">
        <ele>741.56361432</ele>
        <time>2021-03-25T08:56:19Z</time>
      </trkpt>
      <trkpt lat="44.7287" lon="4.39106">
        <ele>737.56421908</ele>
        <time>2021-03-25T08:56:37Z</time>
      </trkpt>
      <trkpt lat="44.72904" lon="4.39115">
        <ele>739.56460116</ele>
        <time>2021-03-25T08:57:19Z</time>
      </trkpt>
      <trkpt lat="44.72939" lon="4.39111">
        <ele>746.564455</ele>
        <time>2021-03-25T08:57:58Z</time>
      </trkpt>
      <trkpt lat="44.72972" lon="4.39098">
        <ele>747.56389848</ele>
        <time>2021-03-25T08:58:37Z</time>
      </trkpt>
      <trkpt lat="44.72988" lon="4.39108">
        <ele>751.56431</ele>
        <time>2021-03-25T08:58:55Z</time>
      </trkpt>
      <trkpt lat="44.73017" lon="4.39132">
        <ele>752.56528648</ele>
        <time>2021-03-25T08:59:32Z</time>
      </trkpt>
      <trkpt lat="44.7304" lon="4.3917">
        <ele>760.56680136</ele>
        <time>2021-03-25T09:00:15Z</time>
      </trkpt>
      <trkpt lat="44.73065" lon="4.39205">
        <ele>765.56818444</ele>
        <time>2021-03-25T09:00:56Z</time>
      </trkpt>
      <trkpt lat="44.73077" lon="4.39222">
        <ele>766.5688658</ele>
        <time>2021-03-25T09:01:14Z</time>
      </trkpt>
      <trkpt lat="44.73109" lon="4.39201">
        <ele>768.56804032</ele>
        <time>2021-03-25T09:01:51Z</time>
      </trkpt>
      <trkpt lat="44.73143" lon="4.39192">
        <ele>771.5676862</ele>
        <time>2021-03-25T09:02:26Z</time>
      </trkpt>
      <trkpt lat="44.73177" lon="4.39185">
        <ele>770.56738208</ele>
        <time>2021-03-25T09:02:57Z</time>
      </trkpt>
      <trkpt lat="44.73191" lon="4.39171">
        <ele>768.5668188</ele>
        <time>2021-03-25T09:03:20Z</time>
      </trkpt>
      <trkpt lat="44.73223" lon="4.39155">
        <ele>767.56620108</ele>
        <time>2021-03-25T09:03:55Z</time>
      </trkpt>
      <trkpt lat="44.73256" lon="4.39142">
        <ele>770.56569692</ele>
        <time>2021-03-25T09:04:30Z</time>
      </trkpt>
      <trkpt lat="44.73291" lon="4.39135">
        <ele>781.56540852</ele>
        <time>2021-03-25T09:05:08Z</time>
      </trkpt>
      <trkpt lat="44.73308" lon="4.39129">
        <ele>784.56517436</ele>
        <time>2021-03-25T09:05:24Z</time>
      </trkpt>
      <trkpt lat="44.73343" lon="4.39127">
        <ele>790.56508072</ele>
        <time>2021-03-25T09:06:29Z</time>
      </trkpt>
      <trkpt lat="44.73372" lon="4.39101">
        <ele>788.56403388</ele>
        <time>2021-03-25T09:13:23Z</time>
      </trkpt>
      <trkpt lat="44.73406" lon="4.3909">
        <ele>788.56359564</ele>
        <time>2021-03-25T09:13:57Z</time>
      </trkpt>
      <trkpt lat="44.73422" lon="4.39098">
        <ele>788.5639206</ele>
        <time>2021-03-25T09:14:14Z</time>
      </trkpt>
      <trkpt lat="44.73453" lon="4.39118">
        <ele>789.5647072</ele>
        <time>2021-03-25T09:14:46Z</time>
      </trkpt>
      <trkpt lat="44.73487" lon="4.39121">
        <ele>788.56483088</ele>
        <time>2021-03-25T09:15:18Z</time>
      </trkpt>
      <trkpt lat="44.73522" lon="4.39118">
        <ele>789.56472752</ele>
        <time>2021-03-25T09:15:48Z</time>
      </trkpt>
      <trkpt lat="44.73539" lon="4.39114">
        <ele>789.56455636</ele>
        <time>2021-03-25T09:16:03Z</time>
      </trkpt>
      <trkpt lat="44.73573" lon="4.39105">
        <ele>790.56419776</ele>
        <time>2021-03-25T09:16:33Z</time>
      </trkpt>
      <trkpt lat="44.73607" lon="4.39096">
        <ele>789.56383092</ele>
        <time>2021-03-25T09:17:06Z</time>
      </trkpt>
      <trkpt lat="44.7364" lon="4.39085">
        <ele>782.56341108</ele>
        <time>2021-03-25T09:17:42Z</time>
      </trkpt>
      <trkpt lat="44.73656" lon="4.39093">
        <ele>777.56370392</ele>
        <time>2021-03-25T09:18:00Z</time>
      </trkpt>
      <trkpt lat="44.73687" lon="4.39116">
        <ele>767.56464404</ele>
        <time>2021-03-25T09:18:40Z</time>
      </trkpt>
      <trkpt lat="44.73719" lon="4.39127">
        <ele>770.56506108</ele>
        <time>2021-03-25T09:19:14Z</time>
      </trkpt>
      <trkpt lat="44.73726" lon="4.39083">
        <ele>769.563305</ele>
        <time>2021-03-25T09:21:17Z</time>
      </trkpt>
      <trkpt lat="44.73736" lon="4.39062">
        <ele>770.56247628</ele>
        <time>2021-03-25T09:21:35Z</time>
      </trkpt>
      <trkpt lat="44.73758" lon="4.39025">
        <ele>761.56100548</ele>
        <time>2021-03-25T09:22:31Z</time>
      </trkpt>
      <trkpt lat="44.73777" lon="4.38985">
        <ele>759.55939372</ele>
        <time>2021-03-25T09:23:03Z</time>
      </trkpt>
      <trkpt lat="44.73785" lon="4.38963">
        <ele>758.55850784</ele>
        <time>2021-03-25T09:23:20Z</time>
      </trkpt>
      <trkpt lat="44.73799" lon="4.38919">
        <ele>754.55674208</ele>
        <time>2021-03-25T09:23:54Z</time>
      </trkpt>
      <trkpt lat="44.73815" lon="4.38874">
        <ele>750.55494988</ele>
        <time>2021-03-25T09:24:31Z</time>
      </trkpt>
      <trkpt lat="44.73833" lon="4.38833">
        <ele>746.55330268</ele>
        <time>2021-03-25T09:25:07Z</time>
      </trkpt>
      <trkpt lat="44.73843" lon="4.38812">
        <ele>744.5524878</ele>
        <time>2021-03-25T09:25:31Z</time>
      </trkpt>
      <trkpt lat="44.73859" lon="4.3877">
        <ele>739.55078816</ele>
        <time>2021-03-25T09:26:05Z</time>
      </trkpt>
      <trkpt lat="44.73878" lon="4.38727">
        <ele>740.5490922</ele>
        <time>2021-03-25T09:26:40Z</time>
      </trkpt>
      <trkpt lat="44.73901" lon="4.3869">
        <ele>729.54758176</ele>
        <time>2021-03-25T09:27:18Z</time>
      </trkpt>
      <trkpt lat="44.73907" lon="4.38669">
        <ele>728.54674092</ele>
        <time>2021-03-25T09:27:36Z</time>
      </trkpt>
      <trkpt lat="44.73936" lon="4.38643">
        <ele>721.54572404</ele>
        <time>2021-03-25T09:28:08Z</time>
      </trkpt>
      <trkpt lat="44.73967" lon="4.38619">
        <ele>713.54474168</ele>
        <time>2021-03-25T09:28:53Z</time>
      </trkpt>
      <trkpt lat="44.73995" lon="4.38594">
        <ele>704.54375828</ele>
        <time>2021-03-25T09:29:32Z</time>
      </trkpt>
      <trkpt lat="44.74011" lon="4.38587">
        <ele>700.5434936</ele>
        <time>2021-03-25T09:29:54Z</time>
      </trkpt>
      <trkpt lat="44.74011" lon="4.38541">
        <ele>688.54163772</ele>
        <time>2021-03-25T09:30:39Z</time>
      </trkpt>
      <trkpt lat="44.74005" lon="4.38494">
        <ele>681.53975488</ele>
        <time>2021-03-25T09:31:19Z</time>
      </trkpt>
      <trkpt lat="44.73994" lon="4.38447">
        <ele>677.537866</ele>
        <time>2021-03-25T09:31:58Z</time>
      </trkpt>
      <trkpt lat="44.73989" lon="4.38424">
        <ele>674.53695564</ele>
        <time>2021-03-25T09:32:17Z</time>
      </trkpt>
      <trkpt lat="44.73972" lon="4.38381">
        <ele>667.53521872</ele>
        <time>2021-03-25T09:32:57Z</time>
      </trkpt>
      <trkpt lat="44.73961" lon="4.38335">
        <ele>661.53339416</ele>
        <time>2021-03-25T09:33:43Z</time>
      </trkpt>
      <trkpt lat="44.73956" lon="4.38286">
        <ele>662.53144544</ele>
        <time>2021-03-25T09:34:19Z</time>
      </trkpt>
      <trkpt lat="44.73964" lon="4.38263">
        <ele>660.53052884</ele>
        <time>2021-03-25T09:34:48Z</time>
      </trkpt>
      <trkpt lat="44.73988" lon="4.38229">
        <ele>661.52914644</ele>
        <time>2021-03-25T09:35:53Z</time>
      </trkpt>
      <trkpt lat="44.74015" lon="4.38195">
        <ele>655.52778236</ele>
        <time>2021-03-25T09:36:27Z</time>
      </trkpt>
      <trkpt lat="44.74034" lon="4.38153">
        <ele>648.52609972</ele>
        <time>2021-03-25T09:37:25Z</time>
      </trkpt>
      <trkpt lat="44.74047" lon="4.38136">
        <ele>643.52543456</ele>
        <time>2021-03-25T09:37:40Z</time>
      </trkpt>
      <trkpt lat="44.74071" lon="4.38101">
        <ele>641.52402008</ele>
        <time>2021-03-25T09:38:21Z</time>
      </trkpt>
      <trkpt lat="44.74101" lon="4.38081">
        <ele>626.52324592</ele>
        <time>2021-03-25T09:39:09Z</time>
      </trkpt>
      <trkpt lat="44.74135" lon="4.38054">
        <ele>620.52215676</ele>
        <time>2021-03-25T09:39:40Z</time>
      </trkpt>
      <trkpt lat="44.74152" lon="4.38046">
        <ele>614.5218214</ele>
        <time>2021-03-25T09:39:56Z</time>
      </trkpt>
      <trkpt lat="44.74182" lon="4.38024">
        <ele>607.5209548</ele>
        <time>2021-03-25T09:40:46Z</time>
      </trkpt>
      <trkpt lat="44.74216" lon="4.38013">
        <ele>592.52053256</ele>
        <time>2021-03-25T09:41:31Z</time>
      </trkpt>
      <trkpt lat="44.74249" lon="4.37999">
        <ele>583.51997148</ele>
        <time>2021-03-25T09:42:13Z</time>
      </trkpt>
      <trkpt lat="44.74257" lon="4.37978">
        <ele>581.51910456</ele>
        <time>2021-03-25T09:42:28Z</time>
      </trkpt>
      <trkpt lat="44.74223" lon="4.37981">
        <ele>582.51921824</ele>
        <time>2021-03-25T09:46:34Z</time>
      </trkpt>
      <trkpt lat="44.74188" lon="4.37978">
        <ele>579.51912608</ele>
        <time>2021-03-25T09:47:50Z</time>
      </trkpt>
      <trkpt lat="44.74153" lon="4.37968">
        <ele>583.51872208</ele>
        <time>2021-03-25T09:48:20Z</time>
      </trkpt>
      <trkpt lat="44.74136" lon="4.37964">
        <ele>581.51856328</ele>
        <time>2021-03-25T09:48:36Z</time>
      </trkpt>
      <trkpt lat="44.74099" lon="4.37969">
        <ele>584.51874096</ele>
        <time>2021-03-25T09:49:08Z</time>
      </trkpt>
      <trkpt lat="44.74065" lon="4.37974">
        <ele>586.51896308</ele>
        <time>2021-03-25T09:49:41Z</time>
      </trkpt>
      <trkpt lat="44.74032" lon="4.37962">
        <ele>591.51848292</ele>
        <time>2021-03-25T09:50:15Z</time>
      </trkpt>
      <trkpt lat="44.74031" lon="4.37937">
        <ele>581.51749768</ele>
        <time>2021-03-25T09:50:35Z</time>
      </trkpt>
      <trkpt lat="44.74011" lon="4.37897">
        <ele>573.51588672</ele>
        <time>2021-03-25T09:51:11Z</time>
      </trkpt>
      <trkpt lat="44.73995" lon="4.37853">
        <ele>567.51411224</ele>
        <time>2021-03-25T09:51:45Z</time>
      </trkpt>
      <trkpt lat="44.73984" lon="4.37804">
        <ele>569.5121482</ele>
        <time>2021-03-25T09:52:14Z</time>
      </trkpt>
      <trkpt lat="44.73977" lon="4.37782">
        <ele>566.51127708</ele>
        <time>2021-03-25T09:52:31Z</time>
      </trkpt>
      <trkpt lat="44.73966" lon="4.3774">
        <ele>562.50958076</ele>
        <time>2021-03-25T09:53:16Z</time>
      </trkpt>
      <trkpt lat="44.73933" lon="4.37724">
        <ele>563.50895156</ele>
        <time>2021-03-25T09:53:52Z</time>
      </trkpt>
      <trkpt lat="44.73898" lon="4.37729">
        <ele>552.50914132</ele>
        <time>2021-03-25T09:54:29Z</time>
      </trkpt>
      <trkpt lat="44.73882" lon="4.37743">
        <ele>555.50970584</ele>
        <time>2021-03-25T09:54:43Z</time>
      </trkpt>
      <trkpt lat="44.73848" lon="4.37747">
        <ele>559.5098682</ele>
        <time>2021-03-25T09:55:38Z</time>
      </trkpt>
      <trkpt lat="44.73814" lon="4.37751">
        <ele>558.51005008</ele>
        <time>2021-03-25T09:56:16Z</time>
      </trkpt>
      <trkpt lat="44.73782" lon="4.3777">
        <ele>561.5108028</ele>
        <time>2021-03-25T09:56:48Z</time>
      </trkpt>
      <trkpt lat="44.73765" lon="4.37777">
        <ele>561.51107944</ele>
        <time>2021-03-25T09:57:05Z</time>
      </trkpt>
      <trkpt lat="44.73733" lon="4.37762">
        <ele>557.51049576</ele>
        <time>2021-03-25T09:57:44Z</time>
      </trkpt>
      <trkpt lat="44.73698" lon="4.37782">
        <ele>564.5112692</ele>
        <time>2021-03-25T09:58:16Z</time>
      </trkpt>
      <trkpt lat="44.7367" lon="4.37812">
        <ele>569.51249056</ele>
        <time>2021-03-25T09:58:50Z</time>
      </trkpt>
      <trkpt lat="44.73656" lon="4.37828">
        <ele>565.5131074</ele>
        <time>2021-03-25T09:59:11Z</time>
      </trkpt>
      <trkpt lat="44.73631" lon="4.37863">
        <ele>562.51451896</ele>
        <time>2021-03-25T09:59:44Z</time>
      </trkpt>
      <trkpt lat="44.73605" lon="4.37893">
        <ele>556.51572776</ele>
        <time>2021-03-25T10:00:19Z</time>
      </trkpt>
      <trkpt lat="44.73588" lon="4.37884">
        <ele>556.51534408</ele>
        <time>2021-03-25T10:00:48Z</time>
      </trkpt>
      <trkpt lat="44.73578" lon="4.37836">
        <ele>557.51344388</ele>
        <time>2021-03-25T10:01:26Z</time>
      </trkpt>
      <trkpt lat="44.73572" lon="4.3779">
        <ele>558.51160524</ele>
        <time>2021-03-25T10:02:03Z</time>
      </trkpt>
      <trkpt lat="44.73561" lon="4.37744">
        <ele>549.50975644</ele>
        <time>2021-03-25T10:12:35Z</time>
      </trkpt>
      <trkpt lat="44.7356" lon="4.37719">
        <ele>550.50876312</ele>
        <time>2021-03-25T10:12:58Z</time>
      </trkpt>
      <trkpt lat="44.73555" lon="4.3768">
        <ele>549.50720008</ele>
        <time>2021-03-25T10:13:50Z</time>
      </trkpt>
      <trkpt lat="44.73519" lon="4.37677">
        <ele>555.50706888</ele>
        <time>2021-03-25T10:14:24Z</time>
      </trkpt>
      <trkpt lat="44.735" lon="4.37637">
        <ele>553.50547572</ele>
        <time>2021-03-25T10:15:18Z</time>
      </trkpt>
      <trkpt lat="44.73481" lon="4.37629">
        <ele>554.50515988</ele>
        <time>2021-03-25T10:15:32Z</time>
      </trkpt>
      <trkpt lat="44.73449" lon="4.3761">
        <ele>557.5043984</ele>
        <time>2021-03-25T10:16:06Z</time>
      </trkpt>
      <trkpt lat="44.73421" lon="4.37585">
        <ele>558.50340324</ele>
        <time>2021-03-25T10:16:43Z</time>
      </trkpt>
      <trkpt lat="44.73397" lon="4.3755">
        <ele>559.50198096</ele>
        <time>2021-03-25T10:17:23Z</time>
      </trkpt>
      <trkpt lat="44.73383" lon="4.37534">
        <ele>559.50135024</ele>
        <time>2021-03-25T10:17:47Z</time>
      </trkpt>
      <trkpt lat="44.73357" lon="4.37503">
        <ele>567.50011364</ele>
        <time>2021-03-25T10:18:21Z</time>
      </trkpt>
      <trkpt lat="44.73349" lon="4.37459">
        <ele>570.49834004</ele>
        <time>2021-03-25T10:19:07Z</time>
      </trkpt>
      <trkpt lat="44.73324" lon="4.37431">
        <ele>574.49722744</ele>
        <time>2021-03-25T10:19:51Z</time>
      </trkpt>
      <trkpt lat="44.73307" lon="4.37425">
        <ele>577.49698772</ele>
        <time>2021-03-25T10:20:31Z</time>
      </trkpt>
      <trkpt lat="44.73277" lon="4.37405">
        <ele>570.49620428</ele>
        <time>2021-03-25T10:21:57Z</time>
      </trkpt>
      <trkpt lat="44.73244" lon="4.37395">
        <ele>571.49578072</ele>
        <time>2021-03-25T10:22:29Z</time>
      </trkpt>
      <trkpt lat="44.73208" lon="4.37406">
        <ele>573.49625536</ele>
        <time>2021-03-25T10:22:59Z</time>
      </trkpt>
      <trkpt lat="44.73202" lon="4.37383">
        <ele>576.49531748</ele>
        <time>2021-03-25T10:23:34Z</time>
      </trkpt>
      <trkpt lat="44.73219" lon="4.37341">
        <ele>570.49362</ele>
        <time>2021-03-25T10:24:19Z</time>
      </trkpt>
      <trkpt lat="44.73189" lon="4.37315">
        <ele>572.49260092</ele>
        <time>2021-03-25T10:25:21Z</time>
      </trkpt>
      <trkpt lat="44.73157" lon="4.37312">
        <ele>576.4924762</ele>
        <time>2021-03-25T10:26:03Z</time>
      </trkpt>
      <trkpt lat="44.73155" lon="4.3731">
        <ele>574.4924164</ele>
        <time>2021-03-25T10:26:07Z</time>
      </trkpt>
      <trkpt lat="44.73115" lon="4.37306">
        <ele>573.49225172</ele>
        <time>2021-03-25T10:27:02Z</time>
      </trkpt>
      <trkpt lat="44.73082" lon="4.37297">
        <ele>573.49189004</ele>
        <time>2021-03-25T10:27:43Z</time>
      </trkpt>
      <trkpt lat="44.73047" lon="4.37289">
        <ele>576.49155236</ele>
        <time>2021-03-25T10:28:18Z</time>
      </trkpt>
      <trkpt lat="44.73031" lon="4.37282">
        <ele>576.49127308</ele>
        <time>2021-03-25T10:28:37Z</time>
      </trkpt>
      <trkpt lat="44.73003" lon="4.37252">
        <ele>581.49008972</ele>
        <time>2021-03-25T10:29:24Z</time>
      </trkpt>
      <trkpt lat="44.73008" lon="4.37203">
        <ele>577.48813472</ele>
        <time>2021-03-25T10:30:07Z</time>
      </trkpt>
      <trkpt lat="44.73014" lon="4.37155">
        <ele>577.48619524</ele>
        <time>2021-03-25T10:30:44Z</time>
      </trkpt>
      <trkpt lat="44.73016" lon="4.37131">
        <ele>571.48525636</ele>
        <time>2021-03-25T10:31:04Z</time>
      </trkpt>
      <trkpt lat="44.73005" lon="4.37087">
        <ele>565.48346808</ele>
        <time>2021-03-25T10:31:46Z</time>
      </trkpt>
      <trkpt lat="44.72973" lon="4.37106">
        <ele>562.48425336</ele>
        <time>2021-03-25T10:32:31Z</time>
      </trkpt>
      <trkpt lat="44.72941" lon="4.37117">
        <ele>564.48468228</ele>
        <time>2021-03-25T10:33:23Z</time>
      </trkpt>
      <trkpt lat="44.72924" lon="4.3711">
        <ele>566.48441052</ele>
        <time>2021-03-25T10:33:51Z</time>
      </trkpt>
      <trkpt lat="44.72892" lon="4.37108">
        <ele>561.4843336</ele>
        <time>2021-03-25T10:34:26Z</time>
      </trkpt>
      <trkpt lat="44.72858" lon="4.37125">
        <ele>563.48498616</ele>
        <time>2021-03-25T10:35:00Z</time>
      </trkpt>
      <trkpt lat="44.72825" lon="4.37138">
        <ele>563.48552396</ele>
        <time>2021-03-25T10:36:37Z</time>
      </trkpt>
      <trkpt lat="44.72809" lon="4.37146">
        <ele>561.48583268</ele>
        <time>2021-03-25T10:37:02Z</time>
      </trkpt>
      <trkpt lat="44.72775" lon="4.37157">
        <ele>559.48629776</ele>
        <time>2021-03-25T10:37:44Z</time>
      </trkpt>
      <trkpt lat="44.72745" lon="4.3718">
        <ele>558.48721588</ele>
        <time>2021-03-25T10:38:18Z</time>
      </trkpt>
      <trkpt lat="44.72713" lon="4.37202">
        <ele>550.48807696</ele>
        <time>2021-03-25T10:38:52Z</time>
      </trkpt>
      <trkpt lat="44.72697" lon="4.37202">
        <ele>551.48808276</ele>
        <time>2021-03-25T10:39:07Z</time>
      </trkpt>
      <trkpt lat="44.72663" lon="4.3719">
        <ele>543.48760728</ele>
        <time>2021-03-25T10:39:44Z</time>
      </trkpt>
      <trkpt lat="44.72643" lon="4.37155">
        <ele>544.48621348</ele>
        <time>2021-03-25T10:40:29Z</time>
      </trkpt>
      <trkpt lat="44.72643" lon="4.37103">
        <ele>541.48412284</ele>
        <time>2021-03-25T10:40:59Z</time>
      </trkpt>
      <trkpt lat="44.72633" lon="4.37084">
        <ele>545.48337428</ele>
        <time>2021-03-25T10:41:15Z</time>
      </trkpt>
      <trkpt lat="44.72606" lon="4.37051">
        <ele>544.48205296</ele>
        <time>2021-03-25T10:41:47Z</time>
      </trkpt>
      <trkpt lat="44.72583" lon="4.37017">
        <ele>546.48067116</ele>
        <time>2021-03-25T10:42:25Z</time>
      </trkpt>
      <trkpt lat="44.72592" lon="4.36969">
        <ele>549.47874896</ele>
        <time>2021-03-25T10:42:58Z</time>
      </trkpt>
      <trkpt lat="44.72592" lon="4.3694">
        <ele>551.47761572</ele>
        <time>2021-03-25T10:43:13Z</time>
      </trkpt>
      <trkpt lat="44.72588" lon="4.36892">
        <ele>548.47569572</ele>
        <time>2021-03-25T10:43:49Z</time>
      </trkpt>
      <trkpt lat="44.72564" lon="4.36857">
        <ele>545.47428836</ele>
        <time>2021-03-25T10:44:34Z</time>
      </trkpt>
      <trkpt lat="44.72553" lon="4.36839">
        <ele>547.47356044</ele>
        <time>2021-03-25T10:44:50Z</time>
      </trkpt>
      <trkpt lat="44.72541" lon="4.36792">
        <ele>547.47169672</ele>
        <time>2021-03-25T10:45:33Z</time>
      </trkpt>
      <trkpt lat="44.72523" lon="4.3675">
        <ele>547.47000772</ele>
        <time>2021-03-25T10:46:17Z</time>
      </trkpt>
      <trkpt lat="44.72487" lon="4.36754">
        <ele>545.47017288</ele>
        <time>2021-03-25T10:46:51Z</time>
      </trkpt>
      <trkpt lat="44.72471" lon="4.36764">
        <ele>548.47055816</ele>
        <time>2021-03-25T10:47:08Z</time>
      </trkpt>
      <trkpt lat="44.72442" lon="4.36791">
        <ele>546.47163572</ele>
        <time>2021-03-25T10:47:44Z</time>
      </trkpt>
      <trkpt lat="44.72411" lon="4.36807">
        <ele>537.47228848</ele>
        <time>2021-03-25T10:48:24Z</time>
      </trkpt>
      <trkpt lat="44.72376" lon="4.36817">
        <ele>536.47269384</ele>
        <time>2021-03-25T10:48:55Z</time>
      </trkpt>
      <trkpt lat="44.72359" lon="4.36826">
        <ele>534.47303576</ele>
        <time>2021-03-25T10:49:10Z</time>
      </trkpt>
      <trkpt lat="44.72324" lon="4.36839">
        <ele>533.47354408</ele>
        <time>2021-03-25T10:49:40Z</time>
      </trkpt>
      <trkpt lat="44.72291" lon="4.36835">
        <ele>522.47341268</ele>
        <time>2021-03-25T10:50:16Z</time>
      </trkpt>
      <trkpt lat="44.72277" lon="4.36791">
        <ele>524.47165236</ele>
        <time>2021-03-25T10:50:50Z</time>
      </trkpt>
      <trkpt lat="44.72269" lon="4.36772">
        <ele>522.4708586</ele>
        <time>2021-03-25T10:51:05Z</time>
      </trkpt>
      <trkpt lat="44.72237" lon="4.36749">
        <ele>520.46994188</ele>
        <time>2021-03-25T10:51:36Z</time>
      </trkpt>
      <trkpt lat="44.7222" lon="4.36757">
        <ele>518.1</ele>
      </trkpt>
      <trkpt lat="44.72211" lon="4.36775">
        <ele>514.1</ele>
      </trkpt>
      <trkpt lat="44.72225" lon="4.36775">
        <ele>513.1</ele>
      </trkpt>
      <trkpt lat="44.72237" lon="4.36769">
        <ele>522.1</ele>
      </trkpt>
      <trkpt lat="44.72224" lon="4.36789">
        <ele>507.7</ele>
      </trkpt>
      <trkpt lat="44.72209" lon="4.36805">
        <ele>508.4721826</ele>
        <time>2021-03-25T10:53:11Z</time>
      </trkpt>
      <trkpt lat="44.72192" lon="4.36808">
        <ele>505.47232656</ele>
        <time>2021-03-25T10:53:27Z</time>
      </trkpt>
      <trkpt lat="44.72166" lon="4.36778">
        <ele>491.47110212</ele>
        <time>2021-03-25T10:54:10Z</time>
      </trkpt>
      <trkpt lat="44.72158" lon="4.36733">
        <ele>496.4693262</ele>
        <time>2021-03-25T10:54:46Z</time>
      </trkpt>
      <trkpt lat="44.72147" lon="4.36687">
        <ele>493.46748696</ele>
        <time>2021-03-25T10:55:17Z</time>
      </trkpt>
      <trkpt lat="44.72137" lon="4.36666">
        <ele>490.466628</ele>
        <time>2021-03-25T10:55:31Z</time>
      </trkpt>
      <trkpt lat="44.72119" lon="4.36625">
        <ele>489.4649882</ele>
        <time>2021-03-25T10:56:01Z</time>
      </trkpt>
      <trkpt lat="44.72085" lon="4.36617">
        <ele>489.46468576</ele>
        <time>2021-03-25T10:56:30Z</time>
      </trkpt>
      <trkpt lat="44.72054" lon="4.366">
        <ele>477.46401364</ele>
        <time>2021-03-25T10:57:10Z</time>
      </trkpt>
      <trkpt lat="44.72044" lon="4.3658">
        <ele>473.463196</ele>
        <time>2021-03-25T10:57:29Z</time>
      </trkpt>
      <trkpt lat="44.72019" lon="4.36543">
        <ele>477.46172016</ele>
        <time>2021-03-25T10:58:04Z</time>
      </trkpt>
      <trkpt lat="44.72017" lon="4.36495">
        <ele>475.45980488</ele>
        <time>2021-03-25T10:58:37Z</time>
      </trkpt>
      <trkpt lat="44.72022" lon="4.36448">
        <ele>480.45792604</ele>
        <time>2021-03-25T10:59:07Z</time>
      </trkpt>
      <trkpt lat="44.72014" lon="4.36425">
        <ele>481.45699884</ele>
        <time>2021-03-25T10:59:21Z</time>
      </trkpt>
      <trkpt lat="44.72022" lon="4.36381">
        <ele>487.45522148</ele>
        <time>2021-03-25T10:59:57Z</time>
      </trkpt>
      <trkpt lat="44.72046" lon="4.36345">
        <ele>482.45380992</ele>
        <time>2021-03-25T11:01:34Z</time>
      </trkpt>
      <trkpt lat="44.72047" lon="4.36298">
        <ele>482.4519024</ele>
        <time>2021-03-25T11:02:08Z</time>
      </trkpt>
      <trkpt lat="44.72047" lon="4.36273">
        <ele>477.4509252</ele>
        <time>2021-03-25T11:02:29Z</time>
      </trkpt>
      <trkpt lat="44.7206" lon="4.3624">
        <ele>471.44959572</ele>
        <time>2021-03-25T11:03:10Z</time>
      </trkpt>
      <trkpt lat="44.72078" lon="4.36199">
        <ele>463.44794016</ele>
        <time>2021-03-25T11:03:47Z</time>
      </trkpt>
      <trkpt lat="44.72103" lon="4.36165">
        <ele>456.44658112</ele>
        <time>2021-03-25T11:04:21Z</time>
      </trkpt>
      <trkpt lat="44.72115" lon="4.36147">
        <ele>463.4458668</ele>
        <time>2021-03-25T11:04:39Z</time>
      </trkpt>
      <trkpt lat="44.72143" lon="4.36116">
        <ele>456.44465628</ele>
        <time>2021-03-25T11:05:19Z</time>
      </trkpt>
      <trkpt lat="44.72114" lon="4.36091">
        <ele>442.44362524</ele>
        <time>2021-03-25T11:06:53Z</time>
      </trkpt>
      <trkpt lat="44.72083" lon="4.36072">
        <ele>437.44287564</ele>
        <time>2021-03-25T11:07:35Z</time>
      </trkpt>
      <trkpt lat="44.72065" lon="4.36072">
        <ele>433.4428624</ele>
        <time>2021-03-25T11:07:58Z</time>
      </trkpt>
      <trkpt lat="44.72033" lon="4.36052">
        <ele>426.4420738</ele>
        <time>2021-03-25T11:08:47Z</time>
      </trkpt>
      <trkpt lat="44.72027" lon="4.36003">
        <ele>424.440136</ele>
        <time>2021-03-25T11:09:22Z</time>
      </trkpt>
      <trkpt lat="44.72021" lon="4.35956">
        <ele>421.43824076</ele>
        <time>2021-03-25T11:10:11Z</time>
      </trkpt>
      <trkpt lat="44.72004" lon="4.35952">
        <ele>431.43808436</ele>
        <time>2021-03-25T11:11:59Z</time>
      </trkpt>
      <trkpt lat="44.71971" lon="4.35941">
        <ele>416.43764088</ele>
        <time>2021-03-25T11:12:35Z</time>
      </trkpt>
      <trkpt lat="44.7194" lon="4.35967">
        <ele>415.43868844</ele>
        <time>2021-03-25T11:13:54Z</time>
      </trkpt>
      <trkpt lat="44.71906" lon="4.35972">
        <ele>412.43889184</ele>
        <time>2021-03-25T11:14:29Z</time>
      </trkpt>
      <trkpt lat="44.71891" lon="4.35984">
        <ele>418.43933848</ele>
        <time>2021-03-25T11:14:44Z</time>
      </trkpt>
      <trkpt lat="44.71857" lon="4.35997">
        <ele>419.4398884</ele>
        <time>2021-03-25T11:15:13Z</time>
      </trkpt>
      <trkpt lat="44.71822" lon="4.36016">
        <ele>420.44065108</ele>
        <time>2021-03-25T11:15:46Z</time>
      </trkpt>
      <trkpt lat="44.71796" lon="4.3602">
        <ele>418.8</ele>
      </trkpt>
      <trkpt lat="44.71808" lon="4.36008">
        <ele>415.8</ele>
      </trkpt>
      <trkpt lat="44.71814" lon="4.35992">
        <ele>420.6</ele>
      </trkpt>
      <trkpt lat="44.71821" lon="4.35977">
        <ele>426.4</ele>
      </trkpt>
      <trkpt lat="44.71821" lon="4.35967">
        <ele>431.1</ele>
      </trkpt>
      <trkpt lat="44.71801" lon="4.35987">
        <ele>424.4</ele>
      </trkpt>
      <trkpt lat="44.71806" lon="4.35968">
        <ele>432.2</ele>
      </trkpt>
      <trkpt lat="44.71805" lon="4.35955">
        <ele>434.43819524</ele>
        <time>2021-03-25T11:20:16Z</time>
      </trkpt>
      <trkpt lat="44.71793" lon="4.35944">
        <ele>441.4</ele>
      </trkpt>
      <trkpt lat="44.7177" lon="4.35941">
        <ele>443.3</ele>
      </trkpt>
      <trkpt lat="44.71758" lon="4.35944">
        <ele>443.3</ele>
      </trkpt>
      <trkpt lat="44.7172" lon="4.35946">
        <ele>436.2</ele>
      </trkpt>
      <trkpt lat="44.71721" lon="4.35934">
        <ele>455.8</ele>
      </trkpt>
      <trkpt lat="44.71746" lon="4.35917">
        <ele>453.5</ele>
      </trkpt>
      <trkpt lat="44.71748" lon="4.35906">
        <ele>461.1</ele>
      </trkpt>
      <trkpt lat="44.71748" lon="4.35895">
        <ele>463.7</ele>
      </trkpt>
      <trkpt lat="44.71752" lon="4.3588">
        <ele>459.6</ele>
      </trkpt>
      <trkpt lat="44.71741" lon="4.35864">
        <ele>462.4345418</ele>
        <time>2021-03-25T11:27:21Z</time>
      </trkpt>
      <trkpt lat="44.71761" lon="4.35813">
        <ele>463.6</ele>
      </trkpt>
      <trkpt lat="44.7177" lon="4.35803">
        <ele>468.9</ele>
      </trkpt>
      <trkpt lat="44.71779" lon="4.35815">
        <ele>468.4</ele>
      </trkpt>
      <trkpt lat="44.71797" lon="4.35811">
        <ele>489.432432</ele>
        <time>2021-03-25T11:34:19Z</time>
      </trkpt>
      <trkpt lat="44.71811" lon="4.358">
        <ele>465.2</ele>
      </trkpt>
      <trkpt lat="44.71816" lon="4.35782">
        <ele>463.6</ele>
      </trkpt>
      <trkpt lat="44.71817" lon="4.35753">
        <ele>463.3</ele>
      </trkpt>
      <trkpt lat="44.71827" lon="4.35705">
        <ele>458.5</ele>
      </trkpt>
      <trkpt lat="44.71851" lon="4.35693">
        <ele>459.7</ele>
      </trkpt>
      <trkpt lat="44.71867" lon="4.3568">
        <ele>463.5</ele>
      </trkpt>
      <trkpt lat="44.71882" lon="4.35663">
        <ele>461.9</ele>
      </trkpt>
      <trkpt lat="44.71888" lon="4.35635">
        <ele>462.9</ele>
      </trkpt>
      <trkpt lat="44.71891" lon="4.35613">
        <ele>461.3</ele>
      </trkpt>
      <trkpt lat="44.71894" lon="4.35585">
        <ele>455.42341496</ele>
        <time>2021-03-25T11:39:08Z</time>
      </trkpt>
      <trkpt lat="44.71902" lon="4.35588">
        <ele>453.42350356</ele>
        <time>2021-03-25T11:44:37Z</time>
      </trkpt>
      <trkpt lat="44.71898" lon="4.35634">
        <ele>454.42535828</ele>
        <time>2021-03-25T11:45:12Z</time>
      </trkpt>
      <trkpt lat="44.71892" lon="4.35657">
        <ele>453.42629416</ele>
        <time>2021-03-25T11:45:34Z</time>
      </trkpt>
      <trkpt lat="44.71868" lon="4.35694">
        <ele>463.4277652</ele>
        <time>2021-03-25T11:46:06Z</time>
      </trkpt>
      <trkpt lat="44.71833" lon="4.35714">
        <ele>460.6</ele>
      </trkpt>
      <trkpt lat="44.71824" lon="4.35749">
        <ele>463.8</ele>
      </trkpt>
      <trkpt lat="44.7182" lon="4.35803">
        <ele>464.1</ele>
      </trkpt>
      <trkpt lat="44.71812" lon="4.35811">
        <ele>464.6</ele>
      </trkpt>
      <trkpt lat="44.71795" lon="4.35819">
        <ele>464.2</ele>
      </trkpt>
      <trkpt lat="44.71784" lon="4.35823">
        <ele>467.3</ele>
      </trkpt>
      <trkpt lat="44.71777" lon="4.35833">
        <ele>468</ele>
      </trkpt>
      <trkpt lat="44.71768" lon="4.35852">
        <ele>462.6</ele>
      </trkpt>
      <trkpt lat="44.71765" lon="4.35865">
        <ele>465.6</ele>
      </trkpt>
      <trkpt lat="44.71766" lon="4.35876">
        <ele>463.7</ele>
      </trkpt>
      <trkpt lat="44.71768" lon="4.35895">
        <ele>455.8</ele>
      </trkpt>
      <trkpt lat="44.71759" lon="4.35902">
        <ele>459.8</ele>
      </trkpt>
      <trkpt lat="44.71749" lon="4.3592">
        <ele>453.4</ele>
      </trkpt>
      <trkpt lat="44.71725" lon="4.35937">
        <ele>440.2</ele>
      </trkpt>
      <trkpt lat="44.71731" lon="4.3594">
        <ele>451.9</ele>
      </trkpt>
      <trkpt lat="44.71756" lon="4.3594">
        <ele>445.1</ele>
      </trkpt>
      <trkpt lat="44.7179" lon="4.35949">
        <ele>439.4379444</ele>
        <time>2021-03-25T12:53:27Z</time>
      </trkpt>
      <trkpt lat="44.71794" lon="4.35952">
        <ele>438.3</ele>
      </trkpt>
      <trkpt lat="44.71801" lon="4.35956">
        <ele>436.5</ele>
      </trkpt>
      <trkpt lat="44.71802" lon="4.35967">
        <ele>432.8</ele>
      </trkpt>
      <trkpt lat="44.71797" lon="4.35983">
        <ele>426.3</ele>
      </trkpt>
      <trkpt lat="44.71798" lon="4.35993">
        <ele>422.7</ele>
      </trkpt>
      <trkpt lat="44.71819" lon="4.35975">
        <ele>427.3</ele>
      </trkpt>
      <trkpt lat="44.71808" lon="4.35994">
        <ele>421.4</ele>
      </trkpt>
      <trkpt lat="44.71806" lon="4.36004">
        <ele>418.3</ele>
      </trkpt>
      <trkpt lat="44.71794" lon="4.36014">
        <ele>419.3</ele>
      </trkpt>
      <trkpt lat="44.71799" lon="4.36037">
        <ele>417.3</ele>
      </trkpt>
      <trkpt lat="44.71795" lon="4.36061">
        <ele>402</ele>
      </trkpt>
      <trkpt lat="44.71795" lon="4.36074">
        <ele>405.3</ele>
      </trkpt>
      <trkpt lat="44.71783" lon="4.36073">
        <ele>415.4</ele>
      </trkpt>
      <trkpt lat="44.71775" lon="4.36073">
        <ele>409.6</ele>
      </trkpt>
      <trkpt lat="44.71765" lon="4.36074">
        <ele>416.5</ele>
      </trkpt>
      <trkpt lat="44.71735" lon="4.36082">
        <ele>416.3</ele>
      </trkpt>
      <trkpt lat="44.71709" lon="4.36073">
        <ele>415.3</ele>
      </trkpt>
      <trkpt lat="44.71664" lon="4.36077">
        <ele>423.44306264</ele>
        <time>2021-03-25T13:00:23Z</time>
      </trkpt>
      <trkpt lat="44.71648" lon="4.36085">
        <ele>433.44339108</ele>
        <time>2021-03-25T13:00:44Z</time>
      </trkpt>
      <trkpt lat="44.71631" lon="4.36128">
        <ele>432.44510896</ele>
        <time>2021-03-25T13:03:44Z</time>
      </trkpt>
      <trkpt lat="44.7161" lon="4.36168">
        <ele>428.44671636</ele>
        <time>2021-03-25T13:04:24Z</time>
      </trkpt>
      <trkpt lat="44.71584" lon="4.36204">
        <ele>427.44816872</ele>
        <time>2021-03-25T13:04:58Z</time>
      </trkpt>
      <trkpt lat="44.71573" lon="4.36217">
        <ele>434.44867792</ele>
        <time>2021-03-25T13:05:27Z</time>
      </trkpt>
      <trkpt lat="44.7154" lon="4.36235">
        <ele>447.4493856</ele>
        <time>2021-03-25T13:06:11Z</time>
      </trkpt>
      <trkpt lat="44.71512" lon="4.36263">
        <ele>452.45050016</ele>
        <time>2021-03-25T13:06:49Z</time>
      </trkpt>
      <trkpt lat="44.71486" lon="4.36297">
        <ele>443.45187736</ele>
        <time>2021-03-25T13:07:28Z</time>
      </trkpt>
      <trkpt lat="44.71478" lon="4.36319">
        <ele>449.4527734</ele>
        <time>2021-03-25T13:07:57Z</time>
      </trkpt>
      <trkpt lat="44.71459" lon="4.36357">
        <ele>457.45427156</ele>
        <time>2021-03-25T13:08:46Z</time>
      </trkpt>
      <trkpt lat="44.71436" lon="4.36393">
        <ele>464.45570504</ele>
        <time>2021-03-25T13:09:40Z</time>
      </trkpt>
      <trkpt lat="44.71402" lon="4.36405">
        <ele>470.45619804</ele>
        <time>2021-03-25T13:10:31Z</time>
      </trkpt>
      <trkpt lat="44.71387" lon="4.36418">
        <ele>475.45670868</ele>
        <time>2021-03-25T13:11:30Z</time>
      </trkpt>
      <trkpt lat="44.71358" lon="4.36446">
        <ele>480.45785464</ele>
        <time>2021-03-25T13:12:18Z</time>
      </trkpt>
      <trkpt lat="44.71324" lon="4.36442">
        <ele>484.4576732</ele>
        <time>2021-03-25T13:13:01Z</time>
      </trkpt>
      <trkpt lat="44.71289" lon="4.36456">
        <ele>483.45825176</ele>
        <time>2021-03-25T13:14:36Z</time>
      </trkpt>
      <trkpt lat="44.71273" lon="4.36463">
        <ele>487.4585128</ele>
        <time>2021-03-25T13:15:19Z</time>
      </trkpt>
      <trkpt lat="44.71243" lon="4.36487">
        <ele>493.45947704</ele>
        <time>2021-03-25T13:16:15Z</time>
      </trkpt>
      <trkpt lat="44.71223" lon="4.36526">
        <ele>497.4610536</ele>
        <time>2021-03-25T13:17:16Z</time>
      </trkpt>
      <trkpt lat="44.71213" lon="4.36547">
        <ele>500.46186108</ele>
        <time>2021-03-25T13:17:39Z</time>
      </trkpt>
      <trkpt lat="44.71183" lon="4.36568">
        <ele>507.46269912</ele>
        <time>2021-03-25T13:18:29Z</time>
      </trkpt>
      <trkpt lat="44.71149" lon="4.36577">
        <ele>508.46308948</ele>
        <time>2021-03-25T13:19:08Z</time>
      </trkpt>
      <trkpt lat="44.71116" lon="4.36579">
        <ele>512.4631536</ele>
        <time>2021-03-25T13:20:05Z</time>
      </trkpt>
      <trkpt lat="44.711" lon="4.36588">
        <ele>511.46351644</ele>
        <time>2021-03-25T13:20:26Z</time>
      </trkpt>
      <trkpt lat="44.71077" lon="4.36623">
        <ele>511.46491904</ele>
        <time>2021-03-25T13:21:17Z</time>
      </trkpt>
      <trkpt lat="44.71057" lon="4.36665">
        <ele>518.466591</ele>
        <time>2021-03-25T13:22:08Z</time>
      </trkpt>
      <trkpt lat="44.71026" lon="4.36688">
        <ele>527.467515</ele>
        <time>2021-03-25T13:23:10Z</time>
      </trkpt>
      <trkpt lat="44.71012" lon="4.36702">
        <ele>539.468093</ele>
        <time>2021-03-25T13:23:59Z</time>
      </trkpt>
      <trkpt lat="44.70983" lon="4.3673">
        <ele>545.46918716</ele>
        <time>2021-03-25T13:24:50Z</time>
      </trkpt>
      <trkpt lat="44.70953" lon="4.36751">
        <ele>546.47004696</ele>
        <time>2021-03-25T13:30:28Z</time>
      </trkpt>
      <trkpt lat="44.7092" lon="4.36769">
        <ele>562.4707734</ele>
        <time>2021-03-25T13:31:29Z</time>
      </trkpt>
      <trkpt lat="44.70902" lon="4.36769">
        <ele>556.4707554</ele>
        <time>2021-03-25T13:32:02Z</time>
      </trkpt>
      <trkpt lat="44.70867" lon="4.36769">
        <ele>552.47076132</ele>
        <time>2021-03-25T13:32:40Z</time>
      </trkpt>
      <trkpt lat="44.70843" lon="4.36803">
        <ele>552.47209812</ele>
        <time>2021-03-25T13:33:19Z</time>
      </trkpt>
      <trkpt lat="44.70817" lon="4.36836">
        <ele>553.47343056</ele>
        <time>2021-03-25T13:33:56Z</time>
      </trkpt>
      <trkpt lat="44.70809" lon="4.36859">
        <ele>554.47433968</ele>
        <time>2021-03-25T13:34:16Z</time>
      </trkpt>
      <trkpt lat="44.70793" lon="4.36901">
        <ele>559.47604972</ele>
        <time>2021-03-25T13:34:58Z</time>
      </trkpt>
      <trkpt lat="44.70786" lon="4.3695">
        <ele>555.47798832</ele>
        <time>2021-03-25T13:35:34Z</time>
      </trkpt>
      <trkpt lat="44.70762" lon="4.3698">
        <ele>555.47921776</ele>
        <time>2021-03-25T13:36:11Z</time>
      </trkpt>
      <trkpt lat="44.70745" lon="4.36987">
        <ele>562.47948496</ele>
        <time>2021-03-25T13:36:29Z</time>
      </trkpt>
      <trkpt lat="44.70726" lon="4.37027">
        <ele>558.48108336</ele>
        <time>2021-03-25T13:37:16Z</time>
      </trkpt>
      <trkpt lat="44.70756" lon="4.3705">
        <ele>577.48199692</ele>
        <time>2021-03-25T13:38:51Z</time>
      </trkpt>
      <trkpt lat="44.70769" lon="4.37061">
        <ele>589.1</ele>
      </trkpt>
      <trkpt lat="44.70765" lon="4.37083">
        <ele>586.48333552</ele>
        <time>2021-03-25T13:39:52Z</time>
      </trkpt>
      <trkpt lat="44.70763" lon="4.37108">
        <ele>591.48430904</ele>
        <time>2021-03-25T13:40:16Z</time>
      </trkpt>
      <trkpt lat="44.70772" lon="4.37132">
        <ele>600.8</ele>
      </trkpt>
      <trkpt lat="44.70784" lon="4.37124">
        <ele>597.48495896</ele>
        <time>2021-03-25T13:41:26Z</time>
      </trkpt>
      <trkpt lat="44.7079" lon="4.371">
        <ele>607.1</ele>
      </trkpt>
      <trkpt lat="44.70808" lon="4.37094">
        <ele>604.48375984</ele>
        <time>2021-03-25T13:42:17Z</time>
      </trkpt>
      <trkpt lat="44.70837" lon="4.37068">
        <ele>617.48272964</ele>
        <time>2021-03-25T13:43:25Z</time>
      </trkpt>
      <trkpt lat="44.70854" lon="4.37065">
        <ele>617.48258144</ele>
        <time>2021-03-25T13:47:11Z</time>
      </trkpt>
      <trkpt lat="44.70831" lon="4.37101">
        <ele>626.48402472</ele>
        <time>2021-03-25T13:52:08Z</time>
      </trkpt>
      <trkpt lat="44.70861" lon="4.37078">
        <ele>630.48311696</ele>
        <time>2021-03-25T13:52:57Z</time>
      </trkpt>
      <trkpt lat="44.70891" lon="4.37052">
        <ele>630.4820808</ele>
        <time>2021-03-25T13:53:30Z</time>
      </trkpt>
      <trkpt lat="44.70905" lon="4.37037">
        <ele>634.48149432</ele>
        <time>2021-03-25T13:53:49Z</time>
      </trkpt>
      <trkpt lat="44.70939" lon="4.37025">
        <ele>639.48098952</ele>
        <time>2021-03-25T13:54:23Z</time>
      </trkpt>
      <trkpt lat="44.70957" lon="4.37028">
        <ele>640.5</ele>
      </trkpt>
      <trkpt lat="44.7097" lon="4.37044">
        <ele>641.4817684</ele>
        <time>2021-03-25T13:54:58Z</time>
      </trkpt>
      <trkpt lat="44.70972" lon="4.37068">
        <ele>644</ele>
      </trkpt>
      <trkpt lat="44.70971" lon="4.37092">
        <ele>640.48369212</ele>
        <time>2021-03-25T13:55:32Z</time>
      </trkpt>
      <trkpt lat="44.70966" lon="4.37116">
        <ele>642.48463384</ele>
        <time>2021-03-25T13:55:47Z</time>
      </trkpt>
      <trkpt lat="44.70965" lon="4.37166">
        <ele>646.48662292</ele>
        <time>2021-03-25T13:56:18Z</time>
      </trkpt>
      <trkpt lat="44.70974" lon="4.37212">
        <ele>648.48847556</ele>
        <time>2021-03-25T13:56:48Z</time>
      </trkpt>
      <trkpt lat="44.70994" lon="4.37253">
        <ele>651.49012464</ele>
        <time>2021-03-25T13:57:21Z</time>
      </trkpt>
      <trkpt lat="44.71005" lon="4.37271">
        <ele>651.4908242</ele>
        <time>2021-03-25T13:57:36Z</time>
      </trkpt>
      <trkpt lat="44.71029" lon="4.37307">
        <ele>654.49227536</ele>
        <time>2021-03-25T13:58:13Z</time>
      </trkpt>
      <trkpt lat="44.71058" lon="4.37329">
        <ele>655.4931752</ele>
        <time>2021-03-25T14:02:14Z</time>
      </trkpt>
      <trkpt lat="44.71086" lon="4.37306">
        <ele>657.49223136</ele>
        <time>2021-03-25T14:05:55Z</time>
      </trkpt>
      <trkpt lat="44.71098" lon="4.37287">
        <ele>654.4914956</ele>
        <time>2021-03-25T14:06:31Z</time>
      </trkpt>
      <trkpt lat="44.71114" lon="4.37245">
        <ele>650.48979312</ele>
        <time>2021-03-25T14:07:40Z</time>
      </trkpt>
      <trkpt lat="44.71138" lon="4.37209">
        <ele>646.48835844</ele>
        <time>2021-03-25T14:08:25Z</time>
      </trkpt>
      <trkpt lat="44.71168" lon="4.37181">
        <ele>653.48724216</ele>
        <time>2021-03-25T14:08:56Z</time>
      </trkpt>
      <trkpt lat="44.71184" lon="4.3717">
        <ele>650.48679164</ele>
        <time>2021-03-25T14:09:14Z</time>
      </trkpt>
      <trkpt lat="44.71215" lon="4.37146">
        <ele>652.48584088</ele>
        <time>2021-03-25T14:09:47Z</time>
      </trkpt>
      <trkpt lat="44.71248" lon="4.3713">
        <ele>649.48518808</ele>
        <time>2021-03-25T14:10:24Z</time>
      </trkpt>
      <trkpt lat="44.71282" lon="4.37116">
        <ele>648.48464812</ele>
        <time>2021-03-25T14:10:59Z</time>
      </trkpt>
      <trkpt lat="44.71298" lon="4.37122">
        <ele>651.48489036</ele>
        <time>2021-03-25T14:11:20Z</time>
      </trkpt>
      <trkpt lat="44.71333" lon="4.37135">
        <ele>649.48540164</ele>
        <time>2021-03-25T14:11:49Z</time>
      </trkpt>
      <trkpt lat="44.71364" lon="4.37153">
        <ele>653.48610352</ele>
        <time>2021-03-25T14:12:22Z</time>
      </trkpt>
      <trkpt lat="44.71383" lon="4.37194">
        <ele>657.48776508</ele>
        <time>2021-03-25T14:14:40Z</time>
      </trkpt>
      <trkpt lat="44.71386" lon="4.37219">
        <ele>658.488742</ele>
        <time>2021-03-25T14:15:11Z</time>
      </trkpt>
      <trkpt lat="44.71395" lon="4.37242">
        <ele>663.489686</ele>
        <time>2021-03-25T14:16:20Z</time>
      </trkpt>
      <trkpt lat="44.7143" lon="4.37244">
        <ele>664.48975256</ele>
        <time>2021-03-25T14:16:59Z</time>
      </trkpt>
      <trkpt lat="44.71448" lon="4.37242">
        <ele>664.48966348</ele>
        <time>2021-03-25T14:17:17Z</time>
      </trkpt>
      <trkpt lat="44.71458" lon="4.3727">
        <ele>659.49081412</ele>
        <time>2021-03-25T14:17:58Z</time>
      </trkpt>
      <trkpt lat="44.71448" lon="4.37318">
        <ele>660.49273428</ele>
        <time>2021-03-25T14:18:28Z</time>
      </trkpt>
      <trkpt lat="44.71423" lon="4.37353">
        <ele>655.49411284</ele>
        <time>2021-03-25T14:19:04Z</time>
      </trkpt>
      <trkpt lat="44.71412" lon="4.37373">
        <ele>658.49490176</ele>
        <time>2021-03-25T14:21:01Z</time>
      </trkpt>
      <trkpt lat="44.71393" lon="4.37413">
        <ele>657.49651692</ele>
        <time>2021-03-25T14:21:34Z</time>
      </trkpt>
      <trkpt lat="44.71362" lon="4.37436">
        <ele>658.49742928</ele>
        <time>2021-03-25T14:22:14Z</time>
      </trkpt>
      <trkpt lat="44.71328" lon="4.37429">
        <ele>669.4971774</ele>
        <time>2021-03-25T14:23:04Z</time>
      </trkpt>
      <trkpt lat="44.71312" lon="4.37424">
        <ele>671.49694096</ele>
        <time>2021-03-25T14:23:19Z</time>
      </trkpt>
      <trkpt lat="44.71279" lon="4.3741">
        <ele>676.4963816</ele>
        <time>2021-03-25T14:23:52Z</time>
      </trkpt>
      <trkpt lat="44.71245" lon="4.37395">
        <ele>673.49579372</ele>
        <time>2021-03-25T14:24:24Z</time>
      </trkpt>
      <trkpt lat="44.71214" lon="4.37417">
        <ele>670.49668604</ele>
        <time>2021-03-25T14:24:56Z</time>
      </trkpt>
      <trkpt lat="44.71197" lon="4.37423">
        <ele>668.49691856</ele>
        <time>2021-03-25T14:25:38Z</time>
      </trkpt>
      <trkpt lat="44.71163" lon="4.37412">
        <ele>668.4964634</ele>
        <time>2021-03-25T14:26:07Z</time>
      </trkpt>
      <trkpt lat="44.7114" lon="4.37374">
        <ele>671.4949698</ele>
        <time>2021-03-25T14:26:43Z</time>
      </trkpt>
      <trkpt lat="44.7111" lon="4.37351">
        <ele>662.49405552</ele>
        <time>2021-03-25T14:27:47Z</time>
      </trkpt>
      <trkpt lat="44.71093" lon="4.37357">
        <ele>658.49429332</ele>
        <time>2021-03-25T14:28:17Z</time>
      </trkpt>
      <trkpt lat="44.7108" lon="4.37397">
        <ele>660.49589664</ele>
        <time>2021-03-25T14:29:49Z</time>
      </trkpt>
      <trkpt lat="44.71069" lon="4.37444">
        <ele>660.4977492</ele>
        <time>2021-03-25T14:30:29Z</time>
      </trkpt>
      <trkpt lat="44.71057" lon="4.37488">
        <ele>658.49952336</ele>
        <time>2021-03-25T14:31:01Z</time>
      </trkpt>
      <trkpt lat="44.71048" lon="4.37508">
        <ele>657.50032244</ele>
        <time>2021-03-25T14:31:16Z</time>
      </trkpt>
      <trkpt lat="44.71036" lon="4.37556">
        <ele>654.5022432</ele>
        <time>2021-03-25T14:31:47Z</time>
      </trkpt>
      <trkpt lat="44.71035" lon="4.37605">
        <ele>658.50417936</ele>
        <time>2021-03-25T14:32:17Z</time>
      </trkpt>
      <trkpt lat="44.71064" lon="4.37631">
        <ele>662.50522636</ele>
        <time>2021-03-25T14:32:48Z</time>
      </trkpt>
      <trkpt lat="44.7108" lon="4.3764">
        <ele>665.50559572</ele>
        <time>2021-03-25T14:33:04Z</time>
      </trkpt>
      <trkpt lat="44.71113" lon="4.37652">
        <ele>664.50607988</ele>
        <time>2021-03-25T14:33:38Z</time>
      </trkpt>
      <trkpt lat="44.71146" lon="4.37666">
        <ele>660.50662332</ele>
        <time>2021-03-25T14:34:10Z</time>
      </trkpt>
      <trkpt lat="44.71175" lon="4.37691">
        <ele>660.50762016</ele>
        <time>2021-03-25T14:34:42Z</time>
      </trkpt>
      <trkpt lat="44.71186" lon="4.3771">
        <ele>660.50841208</ele>
        <time>2021-03-25T14:34:58Z</time>
      </trkpt>
      <trkpt lat="44.71198" lon="4.37757">
        <ele>661.51027088</ele>
        <time>2021-03-25T14:35:32Z</time>
      </trkpt>
      <trkpt lat="44.71222" lon="4.37793">
        <ele>665.51171052</ele>
        <time>2021-03-25T14:36:05Z</time>
      </trkpt>
      <trkpt lat="44.71248" lon="4.37828">
        <ele>662.51313636</ele>
        <time>2021-03-25T14:36:39Z</time>
      </trkpt>
      <trkpt lat="44.7126" lon="4.37846">
        <ele>658.51383192</ele>
        <time>2021-03-25T14:36:54Z</time>
      </trkpt>
      <trkpt lat="44.71291" lon="4.37864">
        <ele>655.51456268</ele>
        <time>2021-03-25T14:37:28Z</time>
      </trkpt>
      <trkpt lat="44.71321" lon="4.37886">
        <ele>657.51542188</ele>
        <time>2021-03-25T14:37:59Z</time>
      </trkpt>
      <trkpt lat="44.7134" lon="4.37927">
        <ele>666.51706268</ele>
        <time>2021-03-25T14:38:33Z</time>
      </trkpt>
      <trkpt lat="44.7135" lon="4.3795">
        <ele>664.5179788</ele>
        <time>2021-03-25T14:38:48Z</time>
      </trkpt>
      <trkpt lat="44.71368" lon="4.3799">
        <ele>654.5195904</ele>
        <time>2021-03-25T14:39:19Z</time>
      </trkpt>
      <trkpt lat="44.71378" lon="4.38038">
        <ele>653.52151012</ele>
        <time>2021-03-25T14:39:55Z</time>
      </trkpt>
      <trkpt lat="44.71389" lon="4.38084">
        <ele>653.5233496</ele>
        <time>2021-03-25T14:40:25Z</time>
      </trkpt>
      <trkpt lat="44.71396" lon="4.38106">
        <ele>651.52425356</ele>
        <time>2021-03-25T14:40:42Z</time>
      </trkpt>
      <trkpt lat="44.71392" lon="4.38154">
        <ele>653.52616728</ele>
        <time>2021-03-25T14:41:14Z</time>
      </trkpt>
      <trkpt lat="44.71388" lon="4.38205">
        <ele>650.5282096</ele>
        <time>2021-03-25T14:41:45Z</time>
      </trkpt>
      <trkpt lat="44.71394" lon="4.38253">
        <ele>657.53012848</ele>
        <time>2021-03-25T14:42:18Z</time>
      </trkpt>
      <trkpt lat="44.71401" lon="4.38275">
        <ele>658.5309952</ele>
        <time>2021-03-25T14:45:42Z</time>
      </trkpt>
      <trkpt lat="44.71423" lon="4.3831">
        <ele>656.5323928</ele>
        <time>2021-03-25T14:46:17Z</time>
      </trkpt>
      <trkpt lat="44.71463" lon="4.38311">
        <ele>652.5324518</ele>
        <time>2021-03-25T14:46:47Z</time>
      </trkpt>
      <trkpt lat="44.715" lon="4.38313">
        <ele>657.53250392</ele>
        <time>2021-03-25T14:47:21Z</time>
      </trkpt>
      <trkpt lat="44.71516" lon="4.38308">
        <ele>649.53233136</ele>
        <time>2021-03-25T14:47:35Z</time>
      </trkpt>
      <trkpt lat="44.71553" lon="4.38291">
        <ele>654.53164408</ele>
        <time>2021-03-25T14:48:04Z</time>
      </trkpt>
      <trkpt lat="44.71577" lon="4.38323">
        <ele>653.5329304</ele>
        <time>2021-03-25T14:48:37Z</time>
      </trkpt>
      <trkpt lat="44.71578" lon="4.38373">
        <ele>657.53491912</ele>
        <time>2021-03-25T14:49:07Z</time>
      </trkpt>
      <trkpt lat="44.71578" lon="4.38397">
        <ele>656.53589688</ele>
        <time>2021-03-25T14:49:24Z</time>
      </trkpt>
      <trkpt lat="44.71576" lon="4.38447">
        <ele>657.53786632</ele>
        <time>2021-03-25T14:49:52Z</time>
      </trkpt>
      <trkpt lat="44.71603" lon="4.38473">
        <ele>663.53891628</ele>
        <time>2021-03-25T14:50:21Z</time>
      </trkpt>
      <trkpt lat="44.71619" lon="4.38486">
        <ele>659.53942612</ele>
        <time>2021-03-25T14:50:36Z</time>
      </trkpt>
      <trkpt lat="44.71643" lon="4.38525">
        <ele>655.54098504</ele>
        <time>2021-03-25T14:51:05Z</time>
      </trkpt>
      <trkpt lat="44.71654" lon="4.38576">
        <ele>657.54305616</ele>
        <time>2021-03-25T14:51:34Z</time>
      </trkpt>
      <trkpt lat="44.71664" lon="4.3862">
        <ele>660.54480744</ele>
        <time>2021-03-25T14:52:07Z</time>
      </trkpt>
      <trkpt lat="44.7168" lon="4.38635">
        <ele>656.54541576</ele>
        <time>2021-03-25T14:52:22Z</time>
      </trkpt>
      <trkpt lat="44.717" lon="4.38676">
        <ele>648.5470504</ele>
        <time>2021-03-25T14:52:52Z</time>
      </trkpt>
      <trkpt lat="44.71728" lon="4.38707">
        <ele>651.54828172</ele>
        <time>2021-03-25T14:53:26Z</time>
      </trkpt>
      <trkpt lat="44.71755" lon="4.38734">
        <ele>651.54934268</ele>
        <time>2021-03-25T14:54:00Z</time>
      </trkpt>
      <trkpt lat="44.71766" lon="4.38752">
        <ele>648.55009264</ele>
        <time>2021-03-25T14:54:14Z</time>
      </trkpt>
      <trkpt lat="44.71792" lon="4.38787">
        <ele>646.5514978</ele>
        <time>2021-03-25T14:54:43Z</time>
      </trkpt>
      <trkpt lat="44.71825" lon="4.38802">
        <ele>643.552086</ele>
        <time>2021-03-25T14:55:13Z</time>
      </trkpt>
      <trkpt lat="44.71857" lon="4.38821">
        <ele>649.55285708</ele>
        <time>2021-03-25T14:55:42Z</time>
      </trkpt>
      <trkpt lat="44.71874" lon="4.3883">
        <ele>649.55318936</ele>
        <time>2021-03-25T14:55:57Z</time>
      </trkpt>
      <trkpt lat="44.71883" lon="4.38872">
        <ele>651.55488736</ele>
        <time>2021-03-25T14:56:26Z</time>
      </trkpt>
      <trkpt lat="44.7187" lon="4.38919">
        <ele>650.55676568</ele>
        <time>2021-03-25T14:56:55Z</time>
      </trkpt>
      <trkpt lat="44.71875" lon="4.38967">
        <ele>646.55867708</ele>
        <time>2021-03-25T14:57:26Z</time>
      </trkpt>
      <trkpt lat="44.71882" lon="4.38994">
        <ele>648.55975376</ele>
        <time>2021-03-25T14:57:41Z</time>
      </trkpt>
      <trkpt lat="44.71901" lon="4.39037">
        <ele>649.5614966</ele>
        <time>2021-03-25T14:58:10Z</time>
      </trkpt>
      <trkpt lat="44.71907" lon="4.39083">
        <ele>645.5633134</ele>
        <time>2021-03-25T14:58:41Z</time>
      </trkpt>
      <trkpt lat="44.71893" lon="4.39128">
        <ele>640.5651164</ele>
        <time>2021-03-25T14:59:10Z</time>
      </trkpt>
      <trkpt lat="44.71892" lon="4.39152">
        <ele>639.5660932</ele>
        <time>2021-03-25T14:59:25Z</time>
      </trkpt>
      <trkpt lat="44.71887" lon="4.39206">
        <ele>647.5682558</ele>
        <time>2021-03-25T14:59:54Z</time>
      </trkpt>
      <trkpt lat="44.71874" lon="4.39253">
        <ele>648.57010092</ele>
        <time>2021-03-25T15:00:25Z</time>
      </trkpt>
      <trkpt lat="44.71853" lon="4.39294">
        <ele>650.57175572</ele>
        <time>2021-03-25T15:00:54Z</time>
      </trkpt>
      <trkpt lat="44.71844" lon="4.39317">
        <ele>652.57267664</ele>
        <time>2021-03-25T15:01:09Z</time>
      </trkpt>
      <trkpt lat="44.71829" lon="4.39362">
        <ele>651.57448368</ele>
        <time>2021-03-25T15:01:38Z</time>
      </trkpt>
      <trkpt lat="44.71828" lon="4.39377">
        <ele>651.8</ele>
      </trkpt>
      <trkpt lat="44.71828" lon="4.39395">
        <ele>646.5</ele>
      </trkpt>
    </trkseg>
  </trk>
</gpx>